Time;durP1;ratioP1;P1;durP2;ratioP2;P2;SDS_P1;SDS_P2;PMS_P1;PMS_P2;Temp;Humidity;BMP_temperature;BMP_pressure;BME280_temperature;BME280_humidity;BME280_pressure;Samples;Min_cycle;Max_cycle;Signal;HPM_P1;HPM_P2
2023/10/09 08:07:34;;;;;;;2.43;1.60;;;;;;;14.99;100.00;99684.50;5201691;23;20238;-84
2023/10/09 08:19:34;;;;;;;4.07;1.50;;;;;;;15.81;100.00;99671.06;5072275;23;20697;-85
2023/10/09 08:25:56;;;;;;;3.47;1.93;;;;;;;16.11;100.00;99662.47;4974386;23;20249;-88
2023/10/09 08:28:39;;;;;;;3.23;1.90;;;;;;;16.19;100.00;99673.63;4907665;29;20240;-88
2023/10/09 08:31:34;;;;;;;2.73;1.80;;;;;;;15.98;100.00;99663.69;4918683;29;20204;-89
2023/10/09 08:34:03;;;;;;;3.77;1.90;;;;;;;15.88;100.00;99657.34;4925442;29;20205;-88
2023/10/09 08:36:37;;;;;;;2.47;1.67;;;;;;;15.85;100.00;99661.38;4892613;29;20198;-89
2023/10/09 08:39:18;;;;;;;4.83;2.13;;;;;;;15.91;100.00;99678.47;4916124;29;20205;-88
2023/10/09 08:41:54;;;;;;;3.93;1.80;;;;;;;16.16;100.00;99670.63;4890699;29;20213;-89
2023/10/09 08:44:25;;;;;;;4.00;1.60;;;;;;;16.25;100.00;99663.69;4910277;29;20292;-88
2023/10/09 08:46:54;;;;;;;4.87;1.73;;;;;;;16.28;100.00;99674.81;4907659;29;20297;-88
2023/10/09 08:49:23;;;;;;;3.73;1.90;;;;;;;16.21;100.00;99673.38;4907319;29;20705;-89
2023/10/09 08:52:03;;;;;;;3.50;1.90;;;;;;;16.21;100.00;99679.63;4908315;29;20205;-91
2023/10/09 08:54:33;;;;;;;2.83;2.00;;;;;;;16.22;100.00;99661.50;4893185;29;20209;-88
2023/10/09 08:57:01;;;;;;;2.27;1.73;;;;;;;16.30;100.00;99669.16;4899583;29;20229;-89
2023/10/09 08:59:33;;;;;;;4.97;1.97;;;;;;;16.52;100.00;99663.66;4922861;29;20236;-89
2023/10/09 09:02:03;;;;;;;4.37;1.80;;;;;;;16.73;100.00;99663.63;4898481;29;20205;-88
2023/10/09 09:04:40;;;;;;;5.30;2.30;;;;;;;17.10;100.00;99658.19;4912242;29;20224;-89
2023/10/09 09:07:26;;;;;;;3.20;1.80;;;;;;;17.51;100.00;99653.00;4915396;29;20257;-89
2023/10/09 09:12:44;;;;;;;3.43;2.10;;;;;;;17.65;100.00;99628.97;4900300;29;20300;-88
2023/10/09 09:15:26;;;;;;;2.73;2.10;;;;;;;17.83;100.00;99625.75;4907283;29;20207;-88
2023/10/09 09:18:11;;;;;;;2.97;2.03;;;;;;;18.04;100.00;99622.03;4923759;29;20206;-87
2023/10/09 09:20:45;;;;;;;4.07;1.83;;;;;;;18.26;100.00;99619.06;4922688;29;20215;-88
2023/10/09 09:23:16;;;;;;;4.23;1.80;;;;;;;18.36;100.00;99614.47;4905375;29;20200;-88
2023/10/09 09:25:48;;;;;;;2.57;2.03;;;;;;;18.30;100.00;99609.31;4903365;29;20243;-88
2023/10/09 09:28:21;;;;;;;2.20;2.00;;;;;;;18.55;100.00;99603.13;4905086;29;20213;-88
2023/10/09 09:30:55;;;;;;;3.40;2.10;;;;;;;18.70;100.00;99600.41;4908476;29;20211;-88
2023/10/09 09:33:30;;;;;;;2.30;1.83;;;;;;;18.68;100.00;99606.09;4899552;29;20211;-88
2023/10/09 09:36:06;;;;;;;2.60;1.80;;;;;;;18.81;100.00;99602.00;4907921;29;20206;-88
2023/10/09 09:38:47;;;;;;;4.93;1.80;;;;;;;18.97;100.00;99600.88;4909194;29;20215;-87
2023/10/09 09:41:27;;;;;;;2.33;1.50;;;;;;;19.17;100.00;99608.19;4895625;29;20227;-88
2023/10/09 09:44:01;;;;;;;3.20;1.80;;;;;;;19.33;100.00;99602.41;4908851;29;20206;-87
2023/10/09 09:46:33;;;;;;;3.87;2.03;;;;;;;19.48;100.00;99600.75;4924055;29;20202;-88
2023/10/09 09:49:16;;;;;;;2.67;1.60;;;;;;;19.51;100.00;99594.75;4907819;29;20224;-88
2023/10/09 09:51:46;;;;;;;5.13;1.90;;;;;;;19.54;100.00;99599.66;4921045;29;20206;-87
2023/10/09 09:54:15;;;;;;;4.73;1.80;;;;;;;19.56;100.00;99600.97;4904660;29;20210;-88
2023/10/09 09:56:51;;;;;;;5.17;1.80;;;;;;;19.71;100.00;99603.63;4905109;29;20206;-87
2023/10/09 09:59:35;;;;;;;5.93;2.00;;;;;;;19.85;100.00;99592.13;4920021;29;20239;-88
2023/10/09 10:02:11;;;;;;;4.13;2.07;;;;;;;19.89;100.00;99594.00;4895606;29;20208;-87
2023/10/09 10:04:40;;;;;;;4.37;2.30;;;;;;;19.99;100.00;99593.13;4900145;29;20272;-88
2023/10/09 10:07:11;;;;;;;6.27;2.43;;;;;;;19.90;100.00;99592.91;4919517;29;20229;-87
2023/10/09 10:09:44;;;;;;;5.37;2.13;;;;;;;19.99;100.00;99587.69;4901638;29;20244;-87
2023/10/09 10:12:17;;;;;;;7.23;2.43;;;;;;;20.02;100.00;99579.78;4918325;29;20268;-88
2023/10/09 10:14:59;;;;;;;9.33;2.50;;;;;;;20.08;100.00;99589.53;4922526;29;20214;-87
2023/10/09 10:17:29;;;;;;;5.57;2.67;;;;;;;20.17;100.00;99592.47;4906819;29;20200;-87
2023/10/09 10:22:51;;;;;;;6.27;2.30;;;;;;;19.96;100.00;99589.09;4922076;29;20205;-88
2023/10/09 10:25:32;;;;;;;6.77;2.43;;;;;;;20.36;100.00;99587.19;4900994;29;20242;-88
2023/10/09 10:28:42;;;;;;;5.93;2.50;;;;;;;20.59;100.00;99586.44;4919075;29;20210;-87
2023/10/09 10:31:13;;;;;;;6.57;2.60;;;;;;;20.82;100.00;99577.50;4902683;29;20581;-87
2023/10/09 10:33:54;;;;;;;7.30;2.87;;;;;;;21.39;100.00;99586.69;4915100;29;20208;-87
2023/10/09 10:36:26;;;;;;;7.60;2.80;;;;;;;21.88;100.00;99578.16;4931760;29;20211;-86
2023/10/09 10:39:21;;;;;;;7.57;2.43;;;;;;;22.17;100.00;99583.44;4912265;29;20498;-87
2023/10/09 10:42:00;;;;;;;9.43;3.03;;;;;;;22.58;100.00;99581.69;4909886;29;20580;-86
2023/10/09 10:44:34;;;;;;;7.37;2.77;;;;;;;22.94;100.00;99578.34;4906302;29;20207;-87
2023/10/09 10:49:58;;;;;;;9.82;2.65;;;;;;;22.57;100.00;99582.81;4935381;29;20217;-87
2023/10/09 10:52:41;;;;;;;8.48;2.75;;;;;;;22.37;100.00;99580.41;4920878;29;20198;-87
2023/10/09 10:58:47;;;;;;;6.60;2.70;;;;;;;21.77;100.00;99590.28;4891210;29;20211;-87
2023/10/09 11:01:15;;;;;;;10.20;3.13;;;;;;;22.37;100.00;99589.41;4899809;29;20225;-87
2023/10/09 11:04:24;;;;;;;6.05;2.50;;;;;;;22.19;100.00;99587.53;4901764;29;20233;-86
2023/10/09 11:06:49;;;;;;;6.77;2.43;;;;;;;21.80;100.00;99581.50;4898167;29;20209;-87
2023/10/09 11:09:21;;;;;;;8.57;2.70;;;;;;;22.18;100.00;99588.63;4883784;29;20260;-87
2023/10/09 11:12:11;;;;;;;8.63;2.80;;;;;;;22.19;100.00;99592.16;4890693;29;20205;-87
2023/10/09 11:15:05;;;;;;;6.88;2.70;;;;;;;21.75;100.00;99587.84;4893157;29;20293;-87
2023/10/09 11:17:35;;;;;;;8.97;2.80;;;;;;;21.17;100.00;99600.88;4889070;29;20214;-88
2023/10/09 11:25:52;;;;;;;5.93;2.73;;;;;;;20.73;100.00;99606.44;4900856;29;20236;-88
2023/10/09 11:31:16;;;;;;;6.90;2.90;;;;;;;19.95;100.00;99606.50;4885727;29;20241;-88
2023/10/09 11:33:57;;;;;;;10.10;3.03;;;;;;;19.94;100.00;99583.09;4888771;29;20229;-88
2023/10/09 11:36:34;;;;;;;7.20;2.77;;;;;;;19.99;100.00;99598.56;4911926;29;20224;-88
2023/10/09 11:39:22;;;;;;;6.47;3.10;;;;;;;19.88;100.00;99575.25;4898731;29;20303;-88
2023/10/09 11:42:04;;;;;;;7.20;2.87;;;;;;;19.68;100.00;99598.75;4907928;29;20210;-87
2023/10/09 11:44:45;;;;;;;7.63;2.90;;;;;;;20.16;100.00;99591.66;4909587;29;20206;-88
2023/10/09 11:52:56;;;;;;;7.43;3.00;;;;;;;19.55;100.00;99583.03;4907853;29;20209;-87
2023/10/09 11:55:25;;;;;;;8.60;3.00;;;;;;;19.59;100.00;99599.63;4898095;29;20205;-88
2023/10/09 11:58:02;;;;;;;5.97;2.50;;;;;;;20.05;100.00;99603.72;4887350;29;20208;-88
2023/10/09 12:00:44;;;;;;;6.53;3.30;;;;;;;20.40;100.00;99602.66;4884108;29;20236;-87
2023/10/09 12:03:14;;;;;;;10.20;3.07;;;;;;;20.19;100.00;99603.88;4906144;29;20229;-87
2023/10/09 12:05:44;;;;;;;9.47;3.00;;;;;;;19.71;100.00;99598.19;4903068;29;20293;-87
2023/10/09 12:08:16;;;;;;;5.97;3.00;;;;;;;19.31;100.00;99574.72;4890557;29;20233;-88
2023/10/09 12:10:48;;;;;;;6.33;3.10;;;;;;;19.32;100.00;99598.06;4888961;29;20323;-88
2023/10/09 12:13:18;;;;;;;5.73;3.20;;;;;;;19.44;100.00;99575.22;4899397;29;20222;-88
2023/10/09 12:15:48;;;;;;;6.93;3.10;;;;;;;19.70;100.00;99593.03;4909487;29;20210;-88
2023/10/09 12:18:18;;;;;;;10.47;3.00;;;;;;;19.94;100.00;99587.72;4902402;29;20624;-88
2023/10/09 12:20:52;;;;;;;7.03;3.20;;;;;;;20.03;100.00;99603.16;4882202;29;20724;-88
2023/10/09 12:23:27;;;;;;;8.70;3.10;;;;;;;20.24;100.00;99598.41;4889193;29;20667;-87
2023/10/09 12:25:58;;;;;;;8.83;3.40;;;;;;;20.56;100.00;99567.97;4906881;29;20251;-87
2023/10/09 12:28:28;;;;;;;10.90;3.30;;;;;;;20.98;100.00;99523.69;4906956;29;20662;-87
2023/10/09 12:31:01;;;;;;;13.40;2.97;;;;;;;20.76;100.00;99558.78;4908297;29;20226;-87
2023/10/09 12:33:29;;;;;;;10.47;3.63;;;;;;;20.37;100.00;99567.03;4887654;29;20233;-87
2023/10/09 12:35:59;;;;;;;11.03;3.50;;;;;;;21.03;100.00;99589.00;4916990;29;20257;-87
2023/10/09 12:38:33;;;;;;;9.03;3.40;;;;;;;21.32;100.00;99597.16;4876601;29;20678;-87
2023/10/09 12:41:26;;;;;;;7.83;3.77;;;;;;;21.34;100.00;99605.84;4893946;29;20210;-87
2023/10/09 12:43:58;;;;;;;11.07;4.20;;;;;;;20.90;100.00;99593.19;4920584;29;20209;-87
2023/10/09 12:46:26;;;;;;;10.53;4.00;;;;;;;20.71;100.00;99591.50;4907864;29;20206;-85
2023/10/09 12:48:55;;;;;;;10.83;3.73;;;;;;;20.51;100.00;99590.59;4922347;29;20216;-86
2023/10/09 12:51:29;;;;;;;7.67;3.90;;;;;;;20.51;100.00;99579.72;4933966;29;20288;-87
2023/10/09 12:54:01;;;;;;;10.57;3.90;;;;;;;20.37;100.00;99534.41;4907072;29;20222;-87
2023/10/09 12:56:38;;;;;;;9.63;4.03;;;;;;;20.42;100.00;99518.03;4923151;29;20212;-87
2023/10/09 12:59:14;;;;;;;9.70;4.20;;;;;;;20.31;100.00;99571.72;4923017;29;20682;-87
2023/10/09 13:01:42;;;;;;;10.37;3.73;;;;;;;19.90;100.00;99587.47;4906654;29;20198;-87
2023/10/09 13:04:17;;;;;;;12.00;4.40;;;;;;;19.64;100.00;99588.72;4914945;29;20197;-88
2023/10/09 13:06:46;;;;;;;8.50;3.90;;;;;;;19.39;100.00;99597.78;4923320;29;20236;-88
2023/10/09 13:09:24;;;;;;;9.83;3.90;;;;;;;19.38;100.00;99565.44;4922537;29;20256;-88
2023/10/09 13:11:52;;;;;;;8.37;3.87;;;;;;;19.33;100.00;99591.53;4917590;29;20216;-88
2023/10/09 13:14:23;;;;;;;7.50;3.53;;;;;;;19.29;100.00;99579.59;4922698;29;20208;-88
2023/10/09 13:16:54;;;;;;;6.73;3.70;;;;;;;19.22;100.00;99560.06;4923625;29;20205;-87
2023/10/09 13:19:24;;;;;;;9.17;4.60;;;;;;;19.26;100.00;99557.63;4921097;29;20252;-87
2023/10/09 13:21:53;;;;;;;9.57;4.20;;;;;;;19.20;100.00;99562.25;4913777;29;20234;-88
2023/10/09 13:24:28;;;;;;;7.63;4.40;;;;;;;19.17;100.00;99557.41;4896988;29;20263;-88
2023/10/09 13:26:58;;;;;;;9.33;4.17;;;;;;;19.18;100.00;99548.13;4915668;29;20209;-88
2023/10/09 13:29:28;;;;;;;7.77;4.13;;;;;;;19.13;100.00;99550.88;4935277;29;20223;-87
2023/10/09 13:32:02;;;;;;;8.87;4.00;;;;;;;18.86;100.00;99545.81;4934825;29;20197;-88
2023/10/09 13:34:36;;;;;;;8.43;3.93;;;;;;;18.87;100.00;99546.63;4920595;29;20208;-88
2023/10/09 13:37:22;;;;;;;12.47;4.47;;;;;;;18.79;100.00;99547.19;4917076;29;20203;-88
2023/10/09 13:39:56;;;;;;;10.30;4.30;;;;;;;18.73;100.00;99565.38;4930699;29;20209;-88
2023/10/09 13:42:27;;;;;;;6.60;3.87;;;;;;;18.68;100.00;99587.09;4918269;29;20208;-88
2023/10/09 13:44:56;;;;;;;7.30;4.03;;;;;;;18.58;100.00;99586.28;4924350;29;20240;-88
2023/10/09 13:47:31;;;;;;;11.57;4.00;;;;;;;18.69;100.00;99590.63;4904097;29;20207;-88
2023/10/09 13:50:01;;;;;;;11.47;4.23;;;;;;;18.67;100.00;99598.22;4887430;29;20319;-88
2023/10/09 13:52:39;;;;;;;9.13;4.53;;;;;;;18.57;100.00;99611.81;4913988;29;20200;-88
2023/10/09 13:55:17;;;;;;;12.63;4.77;;;;;;;18.36;100.00;99600.91;4893662;29;20680;-88
2023/10/09 13:57:46;;;;;;;8.87;5.00;;;;;;;18.07;100.00;99618.78;4920662;29;20252;-88
2023/10/09 14:00:33;;;;;;;10.00;4.83;;;;;;;17.95;100.00;99616.34;4906580;29;20211;-88
2023/10/09 14:03:09;;;;;;;9.00;4.83;;;;;;;17.81;100.00;99600.84;4898356;29;20224;-87
2023/10/09 14:05:58;;;;;;;8.47;4.67;;;;;;;17.74;100.00;99584.84;4922225;29;20218;-87
2023/10/09 14:08:33;;;;;;;11.50;4.90;;;;;;;17.54;100.00;99595.59;4896318;29;20229;-87
2023/10/09 14:11:05;;;;;;;9.80;4.63;;;;;;;17.53;100.00;99591.25;4910014;29;20231;-87
2023/10/09 14:13:34;;;;;;;11.17;4.87;;;;;;;17.50;100.00;99589.88;4904215;29;20664;-88
2023/10/09 14:16:06;;;;;;;11.33;4.90;;;;;;;17.50;100.00;99581.75;4910134;29;20194;-87
2023/10/09 14:18:36;;;;;;;11.07;5.03;;;;;;;17.48;100.00;99589.34;4907043;29;20659;-87
2023/10/09 14:21:09;;;;;;;11.87;4.80;;;;;;;17.43;100.00;99591.22;4906642;29;20257;-87
2023/10/09 14:23:46;;;;;;;8.43;4.83;;;;;;;17.27;100.00;99582.19;4914170;29;20205;-87
2023/10/09 14:26:22;;;;;;;10.80;5.10;;;;;;;17.14;100.00;99590.81;4938357;29;20217;-88
2023/10/09 14:28:54;;;;;;;9.60;4.90;;;;;;;17.00;100.00;99593.16;4883734;29;20209;-87
2023/10/09 14:31:38;;;;;;;8.57;4.70;;;;;;;16.93;100.00;99597.19;4908414;29;20215;-88
2023/10/09 14:34:12;;;;;;;10.83;5.10;;;;;;;16.82;100.00;99596.31;4884314;29;20231;-88
2023/10/09 14:36:43;;;;;;;9.47;4.93;;;;;;;16.79;100.00;99588.72;4896156;29;20206;-87
2023/10/09 14:39:18;;;;;;;10.67;5.03;;;;;;;16.69;100.00;99596.78;4913932;29;20201;-88
2023/10/09 14:41:48;;;;;;;10.33;5.40;;;;;;;16.68;100.00;99589.72;4915057;29;20212;-88
2023/10/09 14:44:20;;;;;;;12.07;5.70;;;;;;;16.67;100.00;99585.38;4910107;29;20214;-88
2023/10/09 14:46:49;;;;;;;8.50;4.80;;;;;;;16.70;100.00;99582.19;4892293;29;20213;-88
2023/10/09 14:49:21;;;;;;;10.07;5.20;;;;;;;16.65;100.00;99582.13;4912754;29;20228;-88
2023/10/09 14:51:53;;;;;;;10.77;5.00;;;;;;;16.63;100.00;99576.16;4902548;29;20210;-88
2023/10/09 14:54:27;;;;;;;9.97;5.10;;;;;;;16.63;100.00;99570.75;4907288;29;20232;-88
2023/10/09 14:56:55;;;;;;;9.13;5.13;;;;;;;16.59;100.00;99559.66;4906127;29;20212;-88
2023/10/09 14:59:23;;;;;;;11.00;5.63;;;;;;;16.63;100.00;99566.16;4868195;29;20213;-88
2023/10/09 15:01:57;;;;;;;11.53;6.13;;;;;;;16.56;100.00;99578.25;4895226;29;20207;-88
2023/10/09 15:04:30;;;;;;;8.93;5.60;;;;;;;16.50;100.00;99577.41;4900487;29;20216;-88
2023/10/09 15:06:59;;;;;;;10.77;5.50;;;;;;;16.48;100.00;99568.72;4882931;29;20226;-88
2023/10/09 15:09:29;;;;;;;8.30;5.17;;;;;;;16.48;100.00;99568.72;4905809;29;20487;-88
2023/10/09 15:11:57;;;;;;;10.37;5.20;;;;;;;16.40;100.00;99577.31;4900222;29;20199;-88
2023/10/09 15:14:26;;;;;;;9.90;5.40;;;;;;;16.42;100.00;99580.59;4890869;29;20217;-88
2023/10/09 15:17:06;;;;;;;8.70;5.63;;;;;;;16.45;100.00;99590.06;4913655;29;20205;-88
2023/10/09 15:19:44;;;;;;;11.10;5.50;;;;;;;16.38;100.00;99573.25;4898889;29;20205;-88
2023/10/09 15:22:16;;;;;;;8.37;5.07;;;;;;;16.35;100.00;99561.06;4922214;29;20206;-87
2023/10/09 15:24:48;;;;;;;10.70;5.20;;;;;;;16.34;100.00;99564.81;4903396;29;20241;-88
2023/10/09 15:27:19;;;;;;;8.57;4.83;;;;;;;16.28;100.00;99569.38;4904668;29;20663;-88
2023/10/09 15:29:50;;;;;;;8.67;4.90;;;;;;;16.28;100.00;99563.19;4887436;29;20743;-88
2023/10/09 15:32:22;;;;;;;8.13;5.13;;;;;;;16.22;100.00;99559.63;4920910;29;20223;-88
2023/10/09 15:34:58;;;;;;;9.17;5.03;;;;;;;16.21;100.00;99562.56;4921291;29;20293;-88
2023/10/09 15:37:26;;;;;;;7.63;4.87;;;;;;;16.20;100.00;99556.34;4882946;29;20208;-88
2023/10/09 15:40:04;;;;;;;10.57;5.60;;;;;;;16.15;100.00;99550.88;4905492;29;20206;-87
2023/10/09 15:42:33;;;;;;;9.97;5.63;;;;;;;16.06;100.00;99559.72;4898800;29;20209;-88
2023/10/09 15:45:06;;;;;;;10.43;5.73;;;;;;;16.02;100.00;99548.63;4890093;29;20648;-88
2023/10/09 15:47:37;;;;;;;7.13;4.80;;;;;;;16.02;100.00;99556.72;4889909;29;20206;-88
2023/10/09 15:50:14;;;;;;;8.57;4.87;;;;;;;15.97;100.00;99577.47;4887630;29;20226;-88
2023/10/09 15:52:43;;;;;;;10.47;4.67;;;;;;;15.94;100.00;99580.69;4881628;29;20214;-88
2023/10/09 15:55:14;;;;;;;7.90;5.00;;;;;;;15.91;100.00;99582.00;4853592;29;20203;-88
2023/10/09 15:57:43;;;;;;;8.37;5.13;;;;;;;15.93;100.00;99560.16;4888740;29;20293;-88
2023/10/09 16:00:17;;;;;;;10.13;4.90;;;;;;;16.13;100.00;99552.22;4886167;29;20229;-89
2023/10/09 16:02:47;;;;;;;12.23;5.40;;;;;;;16.12;100.00;99558.69;4887871;29;20203;-88
2023/10/09 16:05:18;;;;;;;12.00;5.33;;;;;;;16.09;100.00;99560.03;4890834;29;20727;-89
2023/10/09 16:07:47;;;;;;;7.63;4.50;;;;;;;16.09;100.00;99560.03;4881442;29;20711;-89
2023/10/09 16:10:20;;;;;;;9.17;5.07;;;;;;;16.05;100.00;99555.41;4893421;29;20591;-89
2023/10/09 16:12:57;;;;;;;8.23;5.27;;;;;;;16.04;100.00;99561.88;4897240;29;20205;-89
2023/10/09 16:15:35;;;;;;;9.17;4.67;;;;;;;16.09;100.00;99572.75;4916962;29;20209;-88
2023/10/09 16:18:08;;;;;;;8.90;4.63;;;;;;;15.99;100.00;99578.88;4909610;29;20755;-88
2023/10/09 16:20:40;;;;;;;9.97;4.73;;;;;;;15.97;100.00;99577.47;4899662;29;20201;-91
2023/10/09 16:23:10;;;;;;;8.50;4.93;;;;;;;15.98;100.00;99576.41;4904930;29;20205;-88
2023/10/09 16:25:41;;;;;;;7.00;5.27;;;;;;;15.94;100.00;99581.50;4906522;29;20260;-88
2023/10/09 16:28:15;;;;;;;9.23;4.73;;;;;;;15.91;100.00;99584.69;4930598;29;20241;-88
2023/10/09 16:30:49;;;;;;;9.97;5.30;;;;;;;16.03;100.00;99601.59;4911727;29;20227;-90
2023/10/09 16:33:16;;;;;;;7.37;5.53;;;;;;;15.90;100.00;99601.19;4901456;29;20203;-91
2023/10/09 16:35:48;;;;;;;8.63;5.07;;;;;;;15.88;100.00;99617.66;4907574;29;20206;-91
2023/10/09 16:38:16;;;;;;;11.47;5.13;;;;;;;15.90;100.00;99620.94;4903339;29;20214;-90
2023/10/09 16:40:52;;;;;;;9.37;4.97;;;;;;;15.79;100.00;99617.28;4895158;29;20210;-91
2023/10/09 16:43:26;;;;;;;8.37;4.90;;;;;;;15.76;100.00;99611.59;4895244;29;20304;-90
2023/10/09 16:45:56;;;;;;;9.17;4.70;;;;;;;15.75;100.00;99612.66;4905824;29;20256;-90
2023/10/09 16:48:28;;;;;;;8.47;5.10;;;;;;;15.69;100.00;99608.25;4920560;29;20209;-91
2023/10/09 16:50:58;;;;;;;8.30;5.07;;;;;;;15.72;100.00;99603.16;4919781;29;20221;-89
2023/10/09 16:53:42;;;;;;;8.67;4.97;;;;;;;15.64;100.00;99611.72;4893526;29;20214;-91
2023/10/09 16:56:13;;;;;;;9.93;5.17;;;;;;;15.54;100.00;99594.59;4904234;29;20240;-90
2023/10/09 16:58:42;;;;;;;10.90;5.23;;;;;;;15.49;100.00;99591.81;4904892;29;20300;-90
2023/10/09 17:01:11;;;;;;;8.47;5.10;;;;;;;15.39;100.00;99585.22;4894732;29;20233;-91
2023/10/09 17:03:47;;;;;;;7.70;4.77;;;;;;;15.36;100.00;99580.31;4886479;29;20195;-90
2023/10/09 17:06:17;;;;;;;8.43;4.97;;;;;;;15.31;100.00;99572.13;4900976;29;20225;-90
2023/10/09 17:08:52;;;;;;;9.43;5.73;;;;;;;15.32;100.00;99572.97;4904643;29;20240;-90
2023/10/09 17:11:22;;;;;;;10.83;5.43;;;;;;;15.31;100.00;99574.03;4904554;29;20233;-90
2023/10/09 17:13:50;;;;;;;9.83;5.60;;;;;;;15.28;100.00;99571.84;4896657;29;20237;-91
2023/10/09 17:16:27;;;;;;;8.90;5.60;;;;;;;15.33;100.00;99580.81;4912310;29;20217;-90
2023/10/09 17:19:05;;;;;;;7.53;5.30;;;;;;;15.29;100.00;99574.28;4920666;29;20238;-90
2023/10/09 17:21:37;;;;;;;9.53;5.20;;;;;;;15.27;100.00;99589.09;4904350;29;20221;-91
2023/10/09 17:24:12;;;;;;;10.03;6.17;;;;;;;15.27;100.00;99597.19;4912056;29;20240;-91
2023/10/09 17:26:45;;;;;;;8.90;5.40;;;;;;;15.23;100.00;99594.19;4893798;29;20206;-90
2023/10/09 17:29:18;;;;;;;9.20;6.13;;;;;;;15.23;100.00;99599.56;4904238;29;20320;-90
2023/10/09 17:31:52;;;;;;;10.60;5.80;;;;;;;15.20;100.00;99597.38;4897422;29;20288;-88
2023/10/09 17:34:22;;;;;;;9.83;6.03;;;;;;;15.19;100.00;99600.34;4904129;29;20209;-90
2023/10/09 17:36:52;;;;;;;10.00;6.00;;;;;;;15.16;100.00;99601.66;4904579;29;20202;-90
2023/10/09 17:39:26;;;;;;;9.77;5.80;;;;;;;15.17;100.00;99622.16;4903900;29;20201;-90
2023/10/09 17:41:59;;;;;;;10.20;6.10;;;;;;;15.17;100.00;99613.25;4904785;29;20197;-90
2023/10/09 17:44:30;;;;;;;11.73;6.10;;;;;;;15.12;100.00;99615.88;4911672;29;20215;-90
2023/10/09 17:46:59;;;;;;;13.20;6.10;;;;;;;15.10;100.00;99608.03;4919803;29;20233;-90
2023/10/09 17:49:27;;;;;;;8.77;5.30;;;;;;;15.13;100.00;99604.84;4932529;29;20655;-90
2023/10/09 17:51:55;;;;;;;9.20;5.27;;;;;;;15.17;100.00;99605.16;4901139;29;20257;-90
2023/10/09 17:54:27;;;;;;;10.00;5.30;;;;;;;15.23;100.00;99596.06;4898884;29;20198;-90
2023/10/09 17:56:59;;;;;;;9.33;5.10;;;;;;;15.32;100.00;99597.25;4907941;29;20235;-90
2023/10/09 17:59:27;;;;;;;10.80;5.23;;;;;;;15.36;100.00;99598.38;4913660;29;20201;-90
2023/10/09 18:01:58;;;;;;;8.87;5.23;;;;;;;15.39;100.00;99585.22;4906050;29;20197;-90
2023/10/09 18:04:35;;;;;;;8.43;5.23;;;;;;;15.47;100.00;99585.81;4922695;29;20578;-90
2023/10/09 18:07:04;;;;;;;7.70;4.67;;;;;;;15.44;100.00;99585.25;4916512;29;20228;-90
2023/10/09 18:09:34;;;;;;;8.90;4.83;;;;;;;15.56;100.00;99581.63;4907494;29;20201;-90
2023/10/09 18:12:13;;;;;;;8.30;4.70;;;;;;;15.52;100.00;99577.81;4908423;29;20276;-90
2023/10/09 18:14:40;;;;;;;9.40;4.50;;;;;;;15.60;100.00;99572.78;4906987;29;20213;-90
2023/10/09 18:17:10;;;;;;;6.83;3.77;;;;;;;15.70;100.00;99570.19;4906799;29;20202;-91
2023/10/09 18:19:41;;;;;;;8.73;4.50;;;;;;;15.76;100.00;99576.47;4897803;29;20237;-90
2023/10/09 18:22:12;;;;;;;9.00;4.20;;;;;;;15.71;100.00;99562.91;4906006;29;20297;-91
2023/10/09 18:24:43;;;;;;;11.00;4.80;;;;;;;15.80;100.00;99564.09;4921309;29;20269;-91
2023/10/09 18:27:17;;;;;;;7.00;3.83;;;;;;;15.91;100.00;99565.78;4905207;29;20782;-90
2023/10/09 18:29:51;;;;;;;7.47;3.70;;;;;;;15.88;100.00;99574.41;4921623;29;20221;-90
2023/10/09 18:32:23;;;;;;;8.80;4.03;;;;;;;16.00;100.00;99574.28;4902494;29;20226;-90
2023/10/09 18:34:54;;;;;;;11.30;4.10;;;;;;;16.17;100.00;99569.56;4904449;29;20206;-90
2023/10/09 18:37:25;;;;;;;9.40;3.40;;;;;;;16.21;100.00;99563.38;4914554;29;20197;-90
2023/10/09 18:39:53;;;;;;;10.13;4.47;;;;;;;16.25;100.00;99575.31;4921422;29;20213;-90
2023/10/09 18:42:24;;;;;;;7.97;3.87;;;;;;;16.20;100.00;99571.72;4903668;29;20314;-90
2023/10/09 18:44:55;;;;;;;8.03;3.80;;;;;;;16.25;100.00;99575.31;4907361;29;20693;-90
2023/10/09 18:47:24;;;;;;;8.37;4.00;;;;;;;16.30;100.00;99569.13;4905971;29;20217;-90
2023/10/09 18:49:55;;;;;;;8.43;4.07;;;;;;;16.29;100.00;99568.31;4898738;29;20206;-91
2023/10/09 18:52:26;;;;;;;9.97;4.47;;;;;;;16.25;100.00;99569.91;4906138;29;20236;-88
2023/10/09 18:54:55;;;;;;;7.60;3.53;;;;;;;16.23;100.00;99561.25;4899321;29;20212;-91
2023/10/09 18:57:26;;;;;;;7.83;4.10;;;;;;;16.37;100.00;99564.31;4907163;29;20209;-91
2023/10/09 18:59:57;;;;;;;10.03;3.77;;;;;;;16.38;100.00;99570.56;4920573;29;20253;-89
2023/10/09 19:02:26;;;;;;;8.63;4.03;;;;;;;16.32;100.00;99571.56;4895950;29;20199;-89
2023/10/09 19:04:58;;;;;;;8.10;3.80;;;;;;;16.37;100.00;99568.91;4907453;29;20290;-89
2023/10/09 19:07:29;;;;;;;9.37;4.20;;;;;;;16.32;100.00;99576.97;4914503;29;20593;-90
2023/10/09 19:09:56;;;;;;;10.43;4.03;;;;;;;16.26;100.00;99576.13;4900056;29;20214;-90
2023/10/09 19:12:31;;;;;;;11.70;4.33;;;;;;;16.16;100.00;99584.97;4914322;29;20233;-90
2023/10/09 19:14:59;;;;;;;10.00;4.03;;;;;;;16.15;100.00;99588.72;4911035;29;20211;-91
2023/10/09 19:17:28;;;;;;;12.57;4.13;;;;;;;16.14;100.00;99586.31;4920730;29;20213;-91
2023/10/09 19:19:57;;;;;;;9.37;4.10;;;;;;;16.12;100.00;99589.25;4900077;29;20655;-89
2023/10/09 19:22:26;;;;;;;8.50;4.23;;;;;;;16.16;100.00;99598.47;4903393;29;20750;-87
2023/10/09 19:24:56;;;;;;;8.77;4.30;;;;;;;16.18;100.00;99609.03;4897299;29;20290;-89
2023/10/09 19:27:30;;;;;;;11.37;4.30;;;;;;;16.16;100.00;99600.34;4913929;29;20210;-88
2023/10/09 19:30:01;;;;;;;10.43;3.93;;;;;;;16.28;100.00;99601.03;4894169;29;20213;-88
2023/10/09 19:32:31;;;;;;;7.77;4.07;;;;;;;16.26;100.00;99597.75;4928746;29;20222;-89
2023/10/09 19:35:02;;;;;;;9.60;3.63;;;;;;;16.28;100.00;99598.31;4936554;29;20210;-88
2023/10/09 19:37:43;;;;;;;8.60;3.83;;;;;;;16.25;100.00;99605.03;4905679;29;20655;-88
2023/10/09 19:40:17;;;;;;;9.93;3.90;;;;;;;16.47;100.00;99607.66;4912584;29;20202;-89
2023/10/09 19:42:46;;;;;;;9.37;4.40;;;;;;;16.29;100.00;99608.03;4906449;29;20205;-88
2023/10/09 19:45:19;;;;;;;7.87;3.97;;;;;;;16.20;100.00;99618.50;4899610;29;20659;-88
2023/10/09 19:47:52;;;;;;;7.10;3.53;;;;;;;16.16;100.00;99616.56;4899912;29;20205;-89
2023/10/09 19:50:20;;;;;;;11.13;4.00;;;;;;;16.09;100.00;99627.59;4897643;29;20207;-88
2023/10/09 19:52:51;;;;;;;10.70;3.83;;;;;;;16.04;100.00;99615.94;4907017;29;20221;-88
2023/10/09 19:55:21;;;;;;;10.07;3.80;;;;;;;16.00;100.00;99622.91;4899999;29;20214;-89
2023/10/09 19:57:51;;;;;;;8.50;4.50;;;;;;;16.00;100.00;99615.63;4905805;29;20206;-90
2023/10/09 20:00:21;;;;;;;10.03;4.30;;;;;;;15.94;100.00;99608.53;4906047;29;20208;-88
2023/10/09 20:02:57;;;;;;;8.37;4.20;;;;;;;15.97;100.00;99612.59;4903413;29;20890;-89
2023/10/09 20:05:37;;;;;;;10.93;4.17;;;;;;;15.96;100.00;99616.41;4892041;29;20202;-90
2023/10/09 20:08:08;;;;;;;10.87;3.70;;;;;;;15.89;100.00;99627.38;4889145;29;20218;-88
2023/10/09 20:10:41;;;;;;;9.97;4.17;;;;;;;15.91;100.00;99629.84;4903572;29;20206;-89
2023/10/09 20:13:12;;;;;;;11.40;3.97;;;;;;;15.89;100.00;99635.50;4887711;29;20210;-89
2023/10/09 20:15:44;;;;;;;10.03;3.90;;;;;;;15.83;100.00;99634.63;4902321;29;20201;-88
2023/10/09 20:18:13;;;;;;;9.87;4.43;;;;;;;15.85;100.00;99631.66;4905084;29;20277;-87
2023/10/09 20:20:46;;;;;;;7.10;3.70;;;;;;;15.94;100.00;99640.97;4887308;29;20217;-89
2023/10/09 20:23:16;;;;;;;9.37;3.93;;;;;;;15.99;100.00;99641.00;4898015;29;20210;-87
2023/10/09 20:25:47;;;;;;;7.77;3.90;;;;;;;16.01;100.00;99646.13;4893259;29;20713;-89
2023/10/09 20:28:15;;;;;;;10.53;4.67;;;;;;;16.02;100.00;99659.41;4894279;29;20198;-89
2023/10/09 20:30:47;;;;;;;11.63;4.40;;;;;;;16.03;100.00;99668.34;4893641;29;20207;-89
2023/10/09 20:33:17;;;;;;;7.90;4.13;;;;;;;16.04;100.00;99670.78;4896062;29;20207;-87
2023/10/09 20:35:46;;;;;;;8.40;4.20;;;;;;;15.94;100.00;99673.38;4895389;29;20198;-86
2023/10/09 20:38:17;;;;;;;8.77;4.43;;;;;;;15.71;100.00;99654.75;4894077;29;20669;-88